Time;durP1;ratioP1;P1;durP2;ratioP2;P2;SDS_P1;SDS_P2;PMS_P1;PMS_P2;Temp;Humidity;BMP_temperature;BMP_pressure;BME280_temperature;BME280_humidity;BME280_pressure;Samples;Min_cycle;Max_cycle;Signal;HPM_P1;HPM_P2
2021/03/20 00:02:19;;;;;;;8.33;6.50;;;;;;;;;;6099949;23;20175;-79
2021/03/20 00:04:46;;;;;;;6.30;5.67;;;;;;;;;;6099865;23;20175;-79
2021/03/20 00:07:12;;;;;;;8.03;5.60;;;;;;;;;;6099208;23;20183;-80
2021/03/20 00:09:38;;;;;;;8.20;5.70;;;;;;;;;;6099960;23;20572;-79
2021/03/20 00:12:04;;;;;;;6.00;5.07;;;;;;;;;;6099829;23;20178;-80
2021/03/20 00:14:31;;;;;;;5.20;4.67;;;;;;;;;;6101964;23;20265;-78
2021/03/20 00:16:58;;;;;;;5.77;4.73;;;;;;;;;;6128786;23;20174;-80
2021/03/20 00:19:24;;;;;;;6.03;4.50;;;;;;;;;;6128344;23;20429;-79
2021/03/20 00:21:50;;;;;;;5.83;4.27;;;;;;;;;;6102290;23;20190;-78
2021/03/20 00:24:16;;;;;;;4.80;4.07;;;;;;;;;;6128603;23;20185;-79
2021/03/20 00:26:42;;;;;;;6.93;5.30;;;;;;;;;;6128432;23;20178;-78
2021/03/20 00:29:09;;;;;;;6.57;5.43;;;;;;;;;;6128892;23;20436;-78
2021/03/20 00:31:36;;;;;;;6.33;5.17;;;;;;;;;;6128587;23;20562;-79
2021/03/20 00:34:02;;;;;;;5.10;4.40;;;;;;;;;;6129024;23;20178;-78
2021/03/20 00:36:28;;;;;;;6.03;5.10;;;;;;;;;;6128427;23;20174;-79
2021/03/20 00:38:55;;;;;;;6.03;5.10;;;;;;;;;;6128251;23;20174;-79
2021/03/20 00:41:21;;;;;;;6.10;4.57;;;;;;;;;;6127820;23;20189;-78
2021/03/20 00:43:47;;;;;;;5.23;4.73;;;;;;;;;;6128278;23;20182;-78
2021/03/20 00:46:13;;;;;;;4.80;4.40;;;;;;;;;;6128530;23;20181;-78
2021/03/20 00:48:41;;;;;;;7.47;4.93;;;;;;;;;;6128586;23;20552;-78
2021/03/20 00:51:07;;;;;;;7.77;5.17;;;;;;;;;;6128031;23;20178;-78
2021/03/20 00:53:34;;;;;;;5.17;4.70;;;;;;;;;;6128302;23;20181;-78
2021/03/20 00:56:00;;;;;;;5.60;4.83;;;;;;;;;;6127628;23;20174;-79
2021/03/20 00:58:27;;;;;;;8.57;5.37;;;;;;;;;;6128029;23;20174;-79
2021/03/20 01:00:55;;;;;;;5.47;4.97;;;;;;;;;;6128164;23;20174;-79
2021/03/20 01:03:21;;;;;;;5.83;4.93;;;;;;;;;;6128367;23;20193;-79
2021/03/20 01:05:48;;;;;;;4.90;4.40;;;;;;;;;;6127593;23;20178;-79
2021/03/20 01:08:14;;;;;;;4.73;4.30;;;;;;;;;;6128821;23;20428;-79
2021/03/20 01:10:41;;;;;;;7.37;4.77;;;;;;;;;;6127685;23;20178;-79
2021/03/20 01:13:07;;;;;;;5.40;4.40;;;;;;;;;;6127770;23;20170;-79
2021/03/20 01:15:33;;;;;;;5.33;4.83;;;;;;;;;;6127841;23;20209;-79
2021/03/20 01:17:59;;;;;;;6.07;4.43;;;;;;;;;;6128125;23;20174;-78
2021/03/20 01:20:25;;;;;;;7.37;4.40;;;;;;;;;;6127644;23;20485;-79
2021/03/20 01:22:52;;;;;;;5.00;4.50;;;;;;;;;;6128205;23;20185;-78
2021/03/20 01:25:19;;;;;;;4.30;4.00;;;;;;;;;;6127892;23;20186;-79
2021/03/20 01:27:48;;;;;;;4.77;4.37;;;;;;;;;;6127717;23;20181;-79
2021/03/20 01:30:16;;;;;;;4.97;4.57;;;;;;;;;;6128251;23;20181;-79
2021/03/20 01:32:42;;;;;;;4.90;4.50;;;;;;;;;;6127469;23;20174;-79
2021/03/20 01:35:08;;;;;;;4.70;4.23;;;;;;;;;;6128272;23;20552;-78
2021/03/20 01:37:35;;;;;;;5.60;4.93;;;;;;;;;;6128225;23;20248;-79
2021/03/20 01:40:03;;;;;;;7.93;4.80;;;;;;;;;;6127995;23;20174;-78
2021/03/20 01:42:29;;;;;;;6.40;4.63;;;;;;;;;;6128619;23;20193;-78
2021/03/20 01:45:08;;;;;;;5.03;4.57;;;;;;;;;;6128179;23;20178;-79
2021/03/20 01:47:36;;;;;;;5.23;4.83;;;;;;;;;;6127968;23;20178;-79
2021/03/20 01:50:04;;;;;;;4.93;4.53;;;;;;;;;;6128043;23;20575;-79
2021/03/20 01:52:31;;;;;;;5.77;5.10;;;;;;;;;;6126739;23;20177;-78
2021/03/20 01:55:01;;;;;;;5.80;5.00;;;;;;;;;;6127427;23;20582;-79
2021/03/20 01:57:29;;;;;;;6.70;5.30;;;;;;;;;;6128708;23;20159;-79
2021/03/20 01:59:56;;;;;;;5.67;4.70;;;;;;;;;;6102232;23;20181;-79
2021/03/20 02:02:22;;;;;;;5.10;4.60;;;;;;;;;;6127656;23;20200;-78
2021/03/20 02:04:49;;;;;;;5.30;4.80;;;;;;;;;;6127599;23;20584;-79
2021/03/20 02:07:15;;;;;;;4.70;4.30;;;;;;;;;;6127778;23;20552;-79
2021/03/20 02:09:41;;;;;;;6.43;4.80;;;;;;;;;;6128066;23;20184;-78
2021/03/20 02:12:14;;;;;;;5.80;4.70;;;;;;;;;;6127370;23;20178;-79
2021/03/20 02:14:46;;;;;;;7.60;4.63;;;;;;;;;;6127563;23;20453;-79
2021/03/20 02:17:16;;;;;;;4.33;3.93;;;;;;;;;;6128284;23;20175;-79
2021/03/20 02:19:59;;;;;;;4.70;4.30;;;;;;;;;;6127768;23;20221;-78
2021/03/20 02:22:30;;;;;;;5.40;4.10;;;;;;;;;;6126711;23;20197;-79
2021/03/20 02:25:14;;;;;;;4.93;4.23;;;;;;;;;;6127939;23;20204;-80
2021/03/20 02:28:01;;;;;;;5.27;4.43;;;;;;;;;;6127115;23;20182;-79
2021/03/20 02:30:40;;;;;;;4.93;4.17;;;;;;;;;;6102112;23;20622;-79
2021/03/20 02:33:24;;;;;;;4.90;4.50;;;;;;;;;;6127722;23;20178;-79
2021/03/20 02:35:57;;;;;;;4.80;4.40;;;;;;;;;;6108769;23;20225;-79
2021/03/20 02:38:27;;;;;;;4.40;4.00;;;;;;;;;;6127947;23;20452;-79
2021/03/20 02:40:58;;;;;;;4.20;3.80;;;;;;;;;;6127735;23;20178;-79
2021/03/20 02:43:28;;;;;;;4.00;3.63;;;;;;;;;;6103098;23;20186;-79
2021/03/20 02:45:59;;;;;;;4.37;3.97;;;;;;;;;;6129500;23;20189;-79
2021/03/20 02:48:27;;;;;;;3.83;3.53;;;;;;;;;;6129364;23;20182;-79
2021/03/20 02:51:00;;;;;;;4.40;3.87;;;;;;;;;;6129751;23;20189;-79
2021/03/20 02:53:28;;;;;;;4.37;3.97;;;;;;;;;;6128847;23;20451;-79
2021/03/20 02:55:55;;;;;;;4.87;4.00;;;;;;;;;;6129514;23;20174;-79
2021/03/20 02:58:25;;;;;;;4.70;4.13;;;;;;;;;;6129269;23;20185;-79
2021/03/20 03:00:53;;;;;;;4.33;3.90;;;;;;;;;;6129681;23;20582;-79
2021/03/20 03:03:20;;;;;;;4.43;4.03;;;;;;;;;;6128701;23;20190;-79
2021/03/20 03:05:48;;;;;;;4.50;4.10;;;;;;;;;;6129534;23;20178;-79
2021/03/20 03:08:18;;;;;;;5.10;4.70;;;;;;;;;;6129403;23;20174;-79
2021/03/20 03:10:46;;;;;;;5.83;4.47;;;;;;;;;;6129362;23;20174;-79
2021/03/20 03:13:23;;;;;;;5.30;4.80;;;;;;;;;;6128812;23;20174;-79
2021/03/20 03:15:51;;;;;;;4.87;4.43;;;;;;;;;;6128945;23;20587;-78
2021/03/20 03:18:20;;;;;;;9.13;4.60;;;;;;;;;;6129374;23;20178;-79
2021/03/20 03:20:48;;;;;;;6.33;4.37;;;;;;;;;;6129299;23;20174;-79
2021/03/20 03:23:17;;;;;;;5.50;4.83;;;;;;;;;;6129051;23;20186;-79
2021/03/20 03:25:44;;;;;;;5.07;4.57;;;;;;;;;;6129632;23;20177;-79
2021/03/20 03:28:12;;;;;;;5.70;5.00;;;;;;;;;;6129096;23;20182;-79
2021/03/20 03:30:39;;;;;;;7.00;5.00;;;;;;;;;;6128887;23;20555;-79
2021/03/20 03:33:10;;;;;;;4.90;4.50;;;;;;;;;;6129139;23;20170;-79
2021/03/20 03:35:37;;;;;;;6.63;4.93;;;;;;;;;;6129125;23;20248;-78
2021/03/20 03:38:06;;;;;;;5.57;5.07;;;;;;;;;;6128492;23;20189;-78
2021/03/20 03:40:36;;;;;;;5.30;4.83;;;;;;;;;;6129276;23;20394;-78
2021/03/20 03:43:02;;;;;;;5.50;5.00;;;;;;;;;;6129256;23;20583;-78
2021/03/20 03:45:28;;;;;;;8.70;5.47;;;;;;;;;;6129083;23;20181;-78
2021/03/20 03:47:54;;;;;;;5.60;5.00;;;;;;;;;;6129338;23;20174;-78
2021/03/20 03:50:22;;;;;;;5.83;4.60;;;;;;;;;;6128889;23;20261;-78
2021/03/20 03:52:48;;;;;;;7.60;5.47;;;;;;;;;;6128761;23;20170;-78
2021/03/20 03:55:14;;;;;;;6.30;5.20;;;;;;;;;;6128827;23;20185;-79
2021/03/20 03:57:50;;;;;;;7.10;5.50;;;;;;;;;;6128522;23;20441;-79
2021/03/20 04:00:25;;;;;;;6.23;5.43;;;;;;;;;;6128832;23;20203;-79
2021/03/20 04:03:00;;;;;;;8.13;5.63;;;;;;;;;;6128698;23;20463;-79
2021/03/20 04:05:30;;;;;;;7.10;5.67;;;;;;;;;;6129076;23;20178;-79
2021/03/20 04:08:01;;;;;;;8.93;5.30;;;;;;;;;;6128319;23;20540;-79
2021/03/20 04:10:29;;;;;;;6.03;5.47;;;;;;;;;;6128066;23;20185;-80
2021/03/20 04:13:00;;;;;;;5.37;4.83;;;;;;;;;;6128682;23;20170;-79
2021/03/20 04:15:31;;;;;;;5.90;4.80;;;;;;;;;;6128572;23;20209;-81
2021/03/20 04:18:02;;;;;;;5.30;4.80;;;;;;;;;;6128629;23;20173;-79
2021/03/20 04:20:31;;;;;;;6.73;5.50;;;;;;;;;;6128895;23;20174;-80
2021/03/20 04:22:59;;;;;;;5.70;4.70;;;;;;;;;;6128500;23;20186;-78
2021/03/20 04:25:28;;;;;;;6.77;5.57;;;;;;;;;;6128750;23;20181;-79
2021/03/20 04:28:01;;;;;;;6.57;4.80;;;;;;;;;;6128533;23;20181;-80
2021/03/20 04:30:31;;;;;;;5.03;4.53;;;;;;;;;;6128363;23;20178;-79
2021/03/20 04:33:00;;;;;;;5.50;5.00;;;;;;;;;;6128626;23;20197;-78
2021/03/20 04:35:29;;;;;;;5.57;4.93;;;;;;;;;;6128805;23;20178;-76
2021/03/20 04:37:56;;;;;;;5.40;4.90;;;;;;;;;;6128075;23;20189;-77
2021/03/20 04:40:30;;;;;;;6.07;4.93;;;;;;;;;;6128774;23;20174;-79
2021/03/20 04:42:57;;;;;;;5.20;4.70;;;;;;;;;;6128180;23;20190;-79
2021/03/20 04:45:27;;;;;;;5.57;4.93;;;;;;;;;;6127695;23;20186;-79
2021/03/20 04:47:56;;;;;;;5.47;4.97;;;;;;;;;;6127170;23;20181;-80
2021/03/20 04:50:24;;;;;;;5.23;4.83;;;;;;;;;;6127734;23;20265;-79
2021/03/20 04:52:51;;;;;;;5.20;4.70;;;;;;;;;;6127533;23;20582;-78
2021/03/20 04:55:19;;;;;;;6.63;4.90;;;;;;;;;;6127753;23;20253;-79
2021/03/20 04:57:46;;;;;;;5.77;5.13;;;;;;;;;;6126966;23;20182;-79
2021/03/20 05:00:14;;;;;;;5.33;4.83;;;;;;;;;;6127329;23;20174;-79
2021/03/20 05:02:43;;;;;;;5.13;4.67;;;;;;;;;;6126964;23;20190;-79
2021/03/20 05:05:17;;;;;;;5.57;5.00;;;;;;;;;;6127732;23;20174;-79
2021/03/20 05:07:43;;;;;;;5.20;4.70;;;;;;;;;;6127116;23;20570;-79
2021/03/20 05:10:16;;;;;;;5.43;4.93;;;;;;;;;;6127302;23;20178;-80
2021/03/20 05:12:43;;;;;;;5.27;4.77;;;;;;;;;;6127272;23;20178;-80
2021/03/20 05:15:20;;;;;;;5.50;4.67;;;;;;;;;;6127911;23;20599;-78
2021/03/20 05:17:46;;;;;;;6.20;5.60;;;;;;;;;;6127150;23;20683;-78
2021/03/20 05:20:14;;;;;;;6.73;5.33;;;;;;;;;;6128357;23;20178;-78
2021/03/20 05:22:40;;;;;;;8.53;5.03;;;;;;;;;;6127814;23;20186;-79
2021/03/20 05:25:07;;;;;;;5.90;4.80;;;;;;;;;;6128595;23;20178;-78
2021/03/20 05:27:34;;;;;;;5.50;5.00;;;;;;;;;;6127388;23;20178;-78
2021/03/20 05:30:01;;;;;;;6.43;5.30;;;;;;;;;;6128229;23;20174;-79
2021/03/20 05:32:28;;;;;;;5.80;5.30;;;;;;;;;;6127705;23;20174;-78
2021/03/20 05:34:54;;;;;;;5.50;5.00;;;;;;;;;;6127739;23;20182;-78
2021/03/20 05:37:24;;;;;;;6.30;4.80;;;;;;;;;;6127950;23;20178;-78
2021/03/20 05:39:50;;;;;;;8.70;4.63;;;;;;;;;;6128601;23;20174;-78
2021/03/20 05:42:22;;;;;;;7.57;6.07;;;;;;;;;;6127809;23;20181;-78
2021/03/20 05:44:59;;;;;;;11.03;7.43;;;;;;;;;;6128111;23;20178;-78
2021/03/20 05:47:31;;;;;;;6.57;5.97;;;;;;;;;;6127523;23;20178;-78
2021/03/20 05:50:06;;;;;;;12.20;7.30;;;;;;;;;;6127255;23;20180;-77
2021/03/20 05:52:37;;;;;;;14.20;8.50;;;;;;;;;;6127663;23;20707;-78
2021/03/20 05:55:18;;;;;;;8.17;6.20;;;;;;;;;;6128003;23;20178;-79
2021/03/20 05:57:50;;;;;;;8.73;6.83;;;;;;;;;;6122583;23;20184;-78
2021/03/20 06:00:18;;;;;;;7.10;6.40;;;;;;;;;;6127891;23;20174;-78
2021/03/20 06:02:55;;;;;;;6.67;5.90;;;;;;;;;;6127672;23;20186;-77
2021/03/20 06:05:29;;;;;;;7.90;6.03;;;;;;;;;;6127827;23;20185;-78
2021/03/20 06:08:16;;;;;;;8.50;5.73;;;;;;;;;;6127183;23;20181;-77
2021/03/20 06:10:48;;;;;;;6.37;5.83;;;;;;;;;;6128090;23;20174;-77
2021/03/20 06:13:20;;;;;;;6.57;5.83;;;;;;;;;;6127325;23;20174;-76
2021/03/20 06:15:52;;;;;;;8.30;5.83;;;;;;;;;;6127324;23;20257;-77
2021/03/20 06:18:26;;;;;;;6.00;5.40;;;;;;;;;;6129246;23;20185;-77
2021/03/20 06:20:54;;;;;;;6.47;5.80;;;;;;;;;;6130144;23;20546;-77
2021/03/20 06:23:41;;;;;;;7.33;5.90;;;;;;;;;;6129081;23;20185;-77
2021/03/20 06:26:11;;;;;;;5.60;5.10;;;;;;;;;;6130372;23;20174;-77
2021/03/20 06:28:39;;;;;;;10.37;5.97;;;;;;;;;;6104105;23;20181;-77
2021/03/20 06:31:11;;;;;;;5.43;4.93;;;;;;;;;;6130166;23;20178;-77
2021/03/20 06:33:41;;;;;;;6.60;5.20;;;;;;;;;;6128763;23;20544;-77
2021/03/20 06:36:10;;;;;;;6.10;5.40;;;;;;;;;;6130074;23;20484;-77
2021/03/20 06:38:39;;;;;;;5.63;5.13;;;;;;;;;;6129331;23;20181;-77
2021/03/20 06:41:11;;;;;;;5.87;5.33;;;;;;;;;;6129842;23;20409;-78
2021/03/20 06:43:40;;;;;;;6.33;4.70;;;;;;;;;;6129336;23;20575;-77
2021/03/20 06:46:12;;;;;;;5.40;5.00;;;;;;;;;;6129994;23;20178;-78
2021/03/20 06:48:38;;;;;;;5.50;5.00;;;;;;;;;;6129175;23;20174;-79
2021/03/20 06:51:04;;;;;;;5.77;5.23;;;;;;;;;;6129949;23;20182;-77
2021/03/20 06:53:36;;;;;;;6.40;5.20;;;;;;;;;;6129700;23;20170;-78
2021/03/20 06:56:03;;;;;;;11.70;6.97;;;;;;;;;;6129791;23;20178;-78
2021/03/20 06:58:32;;;;;;;11.63;9.10;;;;;;;;;;6129082;23;20186;-77
2021/03/20 07:00:59;;;;;;;9.30;7.77;;;;;;;;;;6130010;23;20174;-80
2021/03/20 07:03:37;;;;;;;6.23;5.27;;;;;;;;;;6128666;23;20190;-78
2021/03/20 07:06:07;;;;;;;7.03;6.32;;;;;;;;;;6128336;23;20989;-78
2021/03/20 07:08:35;;;;;;;6.10;5.43;;;;;;;;;;6129273;23;20433;-78
2021/03/20 07:11:02;;;;;;;7.10;5.57;;;;;;;;;;6129472;23;20229;-78
2021/03/20 07:13:29;;;;;;;6.80;5.70;;;;;;;;;;6128588;23;20174;-79
2021/03/20 07:16:06;;;;;;;5.33;4.90;;;;;;;;;;6128516;23;20642;-78
2021/03/20 07:18:34;;;;;;;5.67;5.00;;;;;;;;;;6129463;23;20547;-80
2021/03/20 07:21:01;;;;;;;5.13;4.70;;;;;;;;;;6129263;23;20178;-80
2021/03/20 07:23:28;;;;;;;5.47;4.90;;;;;;;;;;6128922;23;20189;-79
2021/03/20 07:26:02;;;;;;;7.13;5.10;;;;;;;;;;6129100;23;20767;-79
2021/03/20 07:28:29;;;;;;;5.67;5.03;;;;;;;;;;6128985;23;20181;-80
2021/03/20 07:31:04;;;;;;;6.30;4.80;;;;;;;;;;6128798;23;20181;-79
2021/03/20 07:33:32;;;;;;;5.80;4.83;;;;;;;;;;6128657;23;20440;-80
2021/03/20 07:36:16;;;;;;;4.77;4.37;;;;;;;;;;6128938;23;20174;-81
2021/03/20 07:38:42;;;;;;;5.10;4.60;;;;;;;;;;6129215;23;20174;-81
2021/03/20 07:41:09;;;;;;;6.53;4.57;;;;;;;;;;6128384;23;20174;-82
2021/03/20 07:43:35;;;;;;;5.60;4.60;;;;;;;;;;6102860;23;20186;-81
2021/03/20 07:46:06;;;;;;;5.93;4.00;;;;;;;;;;6129146;23;20768;-81
2021/03/20 07:48:33;;;;;;;4.43;4.07;;;;;;;;;;6128586;23;20254;-81
2021/03/20 07:51:01;;;;;;;6.17;4.67;;;;;;;;;;6128759;23;20181;-81
2021/03/20 07:53:28;;;;;;;5.23;4.50;;;;;;;;;;6128827;23;20182;-81
2021/03/20 07:56:15;;;;;;;6.13;4.30;;;;;;;;;;6128115;23;20185;-78
2021/03/20 07:58:43;;;;;;;4.17;3.87;;;;;;;;;;6080250;23;20181;-80
2021/03/20 08:01:13;;;;;;;5.17;3.93;;;;;;;;;;6128819;23;20206;-80
2021/03/20 08:03:50;;;;;;;4.20;3.80;;;;;;;;;;6128624;23;20190;-78
2021/03/20 08:06:17;;;;;;;2.70;2.50;;;;;;;;;;6102491;23;20217;-81
2021/03/20 08:08:43;;;;;;;2.80;2.60;;;;;;;;;;6129160;23;20405;-80
2021/03/20 08:11:23;;;;;;;3.27;2.97;;;;;;;;;;6128698;23;20181;-80
2021/03/20 08:13:52;;;;;;;3.23;3.00;;;;;;;;;;6128563;23;20169;-81
2021/03/20 08:16:19;;;;;;;3.70;3.00;;;;;;;;;;6127994;23;20201;-81
2021/03/20 08:18:46;;;;;;;5.47;3.30;;;;;;;;;;6128378;23;20181;-81
2021/03/20 08:21:31;;;;;;;3.83;3.20;;;;;;;;;;6128601;23;20178;-82
2021/03/20 08:24:15;;;;;;;9.13;3.87;;;;;;;;;;6128544;23;20186;-82
2021/03/20 08:26:43;;;;;;;8.13;4.30;;;;;;;;;;6069718;23;20245;-81
2021/03/20 08:29:16;;;;;;;9.57;4.60;;;;;;;;;;6128093;23;20513;-82
2021/03/20 08:31:47;;;;;;;8.73;5.00;;;;;;;;;;6128242;23;20189;-84
2021/03/20 08:34:17;;;;;;;4.70;3.40;;;;;;;;;;6128402;23;20170;-82
2021/03/20 08:36:51;;;;;;;2.97;2.73;;;;;;;;;;6128472;23;20483;-82
2021/03/20 08:39:24;;;;;;;3.00;2.80;;;;;;;;;;6103092;23;20177;-82
2021/03/20 08:41:55;;;;;;;3.37;3.07;;;;;;;;;;6128217;23;20174;-84
2021/03/20 08:44:43;;;;;;;6.27;3.20;;;;;;;;;;6128117;23;20197;-83
2021/03/20 08:47:13;;;;;;;3.23;2.90;;;;;;;;;;6128248;23;20229;-84
2021/03/20 08:49:48;;;;;;;2.80;2.50;;;;;;;;;;6127964;23;20576;-84
2021/03/20 08:52:21;;;;;;;3.70;2.63;;;;;;;;;;6127922;23;20189;-83
2021/03/20 08:55:01;;;;;;;4.57;3.23;;;;;;;;;;6128559;23;20428;-80
2021/03/20 08:57:32;;;;;;;5.20;3.40;;;;;;;;;;6128227;23;20551;-84
2021/03/20 08:59:59;;;;;;;5.70;3.67;;;;;;;;;;6128010;23;20205;-80
2021/03/20 09:02:32;;;;;;;4.30;3.33;;;;;;;;;;6128012;23;20184;-80
2021/03/20 09:04:59;;;;;;;6.43;4.53;;;;;;;;;;6128016;23;20579;-80
2021/03/20 09:07:28;;;;;;;3.80;3.22;;;;;;;;;;6127143;23;20970;-79
2021/03/20 09:09:57;;;;;;;2.50;2.20;;;;;;;;;;6128390;23;20186;-80
2021/03/20 09:12:25;;;;;;;3.35;3.03;;;;;;;;;;6127545;23;20738;-80
2021/03/20 09:14:52;;;;;;;3.47;2.80;;;;;;;;;;6127896;23;20205;-80
2021/03/20 09:17:19;;;;;;;2.93;2.73;;;;;;;;;;6127672;23;20417;-79
2021/03/20 09:19:49;;;;;;;3.53;2.72;;;;;;;;;;6128000;23;20737;-80
2021/03/20 09:22:18;;;;;;;3.07;2.30;;;;;;;;;;6128131;23;20174;-79
2021/03/20 09:24:48;;;;;;;4.80;3.13;;;;;;;;;;6102513;23;20202;-82
2021/03/20 09:27:34;;;;;;;3.83;3.30;;;;;;;;;;6128021;23;20241;-82
2021/03/20 09:30:13;;;;;;;3.33;3.03;;;;;;;;;;6127503;23;20181;-81
2021/03/20 09:32:46;;;;;;;4.97;3.27;;;;;;;;;;6128209;23;20185;-84
2021/03/20 09:35:18;;;;;;;2.77;2.57;;;;;;;;;;6127845;23;20178;-79
2021/03/20 09:37:47;;;;;;;4.53;3.20;;;;;;;;;;6128290;23;20182;-80
2021/03/20 09:40:36;;;;;;;2.93;2.73;;;;;;;;;;6127921;23;20174;-85
2021/03/20 09:43:21;;;;;;;3.37;2.80;;;;;;;;;;6102355;23;20174;-86
2021/03/20 09:46:07;;;;;;;2.37;1.93;;;;;;;;;;6127812;23;20178;-84
2021/03/20 09:48:43;;;;;;;4.83;2.00;;;;;;;;;;6127931;23;20174;-85
2021/03/20 09:51:27;;;;;;;3.30;1.70;;;;;;;;;;6127450;23;20472;-81
2021/03/20 09:53:53;;;;;;;1.27;1.27;;;;;;;;;;6126990;23;20731;-83
2021/03/20 09:56:29;;;;;;;1.30;1.20;;;;;;;;;;6127860;23;20178;-83
2021/03/20 09:58:57;;;;;;;1.30;1.30;;;;;;;;;;6102940;23;20181;-84
2021/03/20 10:01:42;;;;;;;1.30;1.20;;;;;;;;;;6127279;23;20965;-84
2021/03/20 10:04:23;;;;;;;1.63;1.53;;;;;;;;;;6128003;23;20621;-79
2021/03/20 10:07:04;;;;;;;1.40;1.40;;;;;;;;;;6127675;23;20181;-83
2021/03/20 10:09:30;;;;;;;1.50;1.40;;;;;;;;;;6126268;23;21069;-81
2021/03/20 10:12:11;;;;;;;1.10;1.10;;;;;;;;;;6127366;23;20202;-83
2021/03/20 10:14:51;;;;;;;1.13;0.90;;;;;;;;;;6128437;23;20174;-83
2021/03/20 10:17:18;;;;;;;0.80;0.80;;;;;;;;;;6127348;23;20201;-81
2021/03/20 10:19:47;;;;;;;1.47;1.27;;;;;;;;;;6127748;23;20539;-83
2021/03/20 10:22:22;;;;;;;2.07;1.20;;;;;;;;;;6127572;23;20174;-82
2021/03/20 10:24:49;;;;;;;1.60;1.27;;;;;;;;;;6100957;23;20738;-83
2021/03/20 10:27:21;;;;;;;2.20;1.10;;;;;;;;;;6128506;23;20159;-79
2021/03/20 10:29:47;;;;;;;1.03;0.93;;;;;;;;;;6128093;23;20178;-83
2021/03/20 10:32:16;;;;;;;1.40;1.30;;;;;;;;;;6127504;23;20174;-79
2021/03/20 10:34:44;;;;;;;1.03;1.03;;;;;;;;;;6128041;23;20207;-79
2021/03/20 10:37:11;;;;;;;2.73;1.10;;;;;;;;;;6126251;23;20181;-78
2021/03/20 10:39:38;;;;;;;1.13;1.13;;;;;;;;;;6127690;23;20727;-82
2021/03/20 10:42:06;;;;;;;0.70;0.70;;;;;;;;;;6127079;23;20178;-81
2021/03/20 10:44:38;;;;;;;1.33;1.23;;;;;;;;;;6128142;23;20190;-79
2021/03/20 10:47:05;;;;;;;1.50;1.10;;;;;;;;;;6126189;23;20452;-83
2021/03/20 10:49:33;;;;;;;6.67;1.30;;;;;;;;;;6127992;23;20178;-79
2021/03/20 10:51:59;;;;;;;1.03;0.93;;;;;;;;;;6127471;23;20262;-80
2021/03/20 10:54:30;;;;;;;1.03;1.03;;;;;;;;;;6127859;23;20170;-80
2021/03/20 10:57:01;;;;;;;1.30;1.20;;;;;;;;;;6101439;23;20782;-81
2021/03/20 10:59:31;;;;;;;2.40;1.50;;;;;;;;;;6128710;23;20484;-79
2021/03/20 11:01:57;;;;;;;2.20;2.00;;;;;;;;;;6103056;23;20444;-80
2021/03/20 11:04:28;;;;;;;2.13;1.90;;;;;;;;;;6129375;23;20583;-83
2021/03/20 11:06:54;;;;;;;1.93;1.83;;;;;;;;;;6130824;23;20182;-86
2021/03/20 11:09:21;;;;;;;1.87;1.70;;;;;;;;;;6132595;23;20242;-80
2021/03/20 11:11:48;;;;;;;2.50;2.30;;;;;;;;;;6129368;23;20459;-80
2021/03/20 11:14:16;;;;;;;1.90;1.80;;;;;;;;;;6129658;23;20177;-80
2021/03/20 11:16:46;;;;;;;15.13;5.27;;;;;;;;;;6128440;23;20201;-83
2021/03/20 11:19:20;;;;;;;2.33;2.13;;;;;;;;;;6129774;23;20181;-82
2021/03/20 11:21:47;;;;;;;4.33;3.00;;;;;;;;;;6129393;23;20185;-82
2021/03/20 11:24:17;;;;;;;9.03;4.67;;;;;;;;;;6130233;23;20186;-79
2021/03/20 11:26:44;;;;;;;2.37;2.17;;;;;;;;;;6127365;23;20181;-89
2021/03/20 11:29:12;;;;;;;2.07;1.87;;;;;;;;;;6129959;23;20206;-81
2021/03/20 11:31:43;;;;;;;4.03;1.77;;;;;;;;;;6129411;23;20178;-84
2021/03/20 11:34:13;;;;;;;1.00;1.00;;;;;;;;;;6131087;23;20170;-83
2021/03/20 11:36:40;;;;;;;1.73;1.63;;;;;;;;;;6129986;23;20177;-76
2021/03/20 11:39:08;;;;;;;3.43;1.73;;;;;;;;;;6130314;23;20185;-88
2021/03/20 11:41:36;;;;;;;1.80;1.70;;;;;;;;;;6129771;23;20185;-81
2021/03/20 11:44:05;;;;;;;1.60;1.50;;;;;;;;;;6130170;23;20197;-90
2021/03/20 11:46:34;;;;;;;1.87;1.70;;;;;;;;;;6130276;23;20178;-88
2021/03/20 11:49:01;;;;;;;3.07;2.10;;;;;;;;;;6130023;23;20721;-82
2021/03/20 11:51:28;;;;;;;3.10;2.00;;;;;;;;;;6128951;23;20178;-87
2021/03/20 11:53:58;;;;;;;1.93;1.50;;;;;;;;;;6129747;23;20177;-90
2021/03/20 11:56:25;;;;;;;1.77;1.67;;;;;;;;;;6129602;23;20181;-87
2021/03/20 11:58:52;;;;;;;1.80;1.60;;;;;;;;;;6131019;23;20174;-78
2021/03/20 12:01:26;;;;;;;1.50;1.40;;;;;;;;;;6130501;23;20182;-86
2021/03/20 12:03:53;;;;;;;1.77;1.20;;;;;;;;;;6130806;23;20197;-77
2021/03/20 12:06:21;;;;;;;1.40;1.30;;;;;;;;;;6131964;23;20600;-95
2021/03/20 12:08:48;;;;;;;1.80;1.70;;;;;;;;;;6132116;23;20539;-91
2021/03/20 12:11:16;;;;;;;1.40;1.30;;;;;;;;;;6131338;23;20178;-94
2021/03/20 12:13:45;;;;;;;1.63;1.40;;;;;;;;;;6133042;23;20174;-94
2021/03/20 12:16:30;;;;;;;1.97;1.40;;;;;;;;;;6132259;23;20197;-77
2021/03/20 12:19:04;;;;;;;1.70;1.43;;;;;;;;;;6133644;23;20178;-95
2021/03/20 12:21:30;;;;;;;3.23;1.60;;;;;;;;;;6134200;23;20182;-94
2021/03/20 12:23:57;;;;;;;2.30;1.40;;;;;;;;;;6133356;23;20197;-91
2021/03/20 12:26:29;;;;;;;1.23;1.23;;;;;;;;;;6130574;23;20178;-87
2021/03/20 12:29:13;;;;;;;1.30;1.20;;;;;;;;;;6132242;23;20221;-87
2021/03/20 12:31:39;;;;;;;1.40;1.23;;;;;;;;;;6129813;23;20184;-86
2021/03/20 12:34:20;;;;;;;2.27;1.30;;;;;;;;;;6129532;23;20177;-77
2021/03/20 12:36:48;;;;;;;1.20;1.20;;;;;;;;;;6127673;23;20484;-78
2021/03/20 12:39:15;;;;;;;1.30;1.30;;;;;;;;;;6130234;23;20174;-83
2021/03/20 12:41:44;;;;;;;1.70;1.30;;;;;;;;;;6130522;23;20210;-80
2021/03/20 12:44:12;;;;;;;1.37;1.37;;;;;;;;;;6129117;23;20278;-83
2021/03/20 12:46:42;;;;;;;1.53;1.43;;;;;;;;;;6128798;23;20181;-79
2021/03/20 12:49:08;;;;;;;3.07;1.40;;;;;;;;;;6128489;23;20177;-83
2021/03/20 12:51:35;;;;;;;3.07;1.20;;;;;;;;;;6127070;23;20185;-80
2021/03/20 12:54:01;;;;;;;2.73;1.30;;;;;;;;;;6128200;23;20177;-80
2021/03/20 12:56:27;;;;;;;1.53;1.43;;;;;;;;;;6126917;23;20193;-79
2021/03/20 12:58:54;;;;;;;1.70;1.60;;;;;;;;;;6127715;23;20180;-80
2021/03/20 13:01:20;;;;;;;1.63;1.53;;;;;;;;;;6127458;23;20178;-80
2021/03/20 13:03:47;;;;;;;1.60;1.50;;;;;;;;;;6127416;23;20178;-80
2021/03/20 13:06:13;;;;;;;2.07;1.60;;;;;;;;;;6127498;23;20174;-81
2021/03/20 13:08:39;;;;;;;1.43;1.33;;;;;;;;;;6127343;23;20185;-82
2021/03/20 13:11:06;;;;;;;1.58;1.48;;;;;;;;;;6126982;23;20827;-81
2021/03/20 13:13:32;;;;;;;1.30;1.30;;;;;;;;;;6127365;23;20185;-80
2021/03/20 13:15:59;;;;;;;2.00;1.80;;;;;;;;;;6126689;23;20209;-79
2021/03/20 13:18:25;;;;;;;3.30;1.60;;;;;;;;;;6126880;23;20181;-79
2021/03/20 13:20:51;;;;;;;5.33;1.67;;;;;;;;;;6127792;23;20196;-81
2021/03/20 13:23:19;;;;;;;1.60;1.60;;;;;;;;;;6127498;23;20180;-79
2021/03/20 13:25:45;;;;;;;3.57;1.90;;;;;;;;;;6127440;23;20190;-79
2021/03/20 13:28:12;;;;;;;1.70;1.50;;;;;;;;;;6126909;23;20174;-79
2021/03/20 13:30:39;;;;;;;1.20;1.20;;;;;;;;;;6127005;23;20555;-78
2021/03/20 13:33:07;;;;;;;1.60;1.50;;;;;;;;;;6126921;23;20185;-78
2021/03/20 13:35:35;;;;;;;2.13;1.67;;;;;;;;;;6127483;23;20196;-79
2021/03/20 13:38:02;;;;;;;1.90;1.80;;;;;;;;;;6127204;23;20181;-80
2021/03/20 13:40:28;;;;;;;1.60;1.50;;;;;;;;;;6127033;23;20181;-80
2021/03/20 13:42:55;;;;;;;1.67;1.47;;;;;;;;;;6126846;23;20602;-79
2021/03/20 13:45:22;;;;;;;1.40;1.40;;;;;;;;;;6127059;23;20194;-79
2021/03/20 13:47:48;;;;;;;1.50;1.40;;;;;;;;;;6126956;23;20181;-81
2021/03/20 13:50:16;;;;;;;1.80;1.70;;;;;;;;;;6127040;23;20178;-79
2021/03/20 13:52:42;;;;;;;1.57;1.47;;;;;;;;;;6127765;23;20174;-80
2021/03/20 13:55:09;;;;;;;1.73;1.63;;;;;;;;;;6127345;23;20174;-81
2021/03/20 13:57:35;;;;;;;2.83;1.80;;;;;;;;;;6127338;23;20586;-80
2021/03/20 14:00:01;;;;;;;1.40;1.40;;;;;;;;;;6127384;23;20174;-81
2021/03/20 14:02:27;;;;;;;1.73;1.57;;;;;;;;;;6127146;23;20186;-81
2021/03/20 14:04:53;;;;;;;1.50;1.40;;;;;;;;;;6127229;23;20598;-81
2021/03/20 14:07:28;;;;;;;1.50;1.40;;;;;;;;;;6126904;23;20174;-81
2021/03/20 14:09:54;;;;;;;1.48;1.40;;;;;;;;;;6101093;23;20178;-81
2021/03/20 14:12:20;;;;;;;1.50;1.40;;;;;;;;;;6127232;23;20177;-81
2021/03/20 14:14:47;;;;;;;1.50;1.40;;;;;;;;;;6126557;23;20197;-81
2021/03/20 14:17:13;;;;;;;1.70;1.60;;;;;;;;;;6126951;23;20181;-81
2021/03/20 14:19:39;;;;;;;1.40;1.40;;;;;;;;;;6126891;23;20177;-81
2021/03/20 14:22:06;;;;;;;1.40;1.30;;;;;;;;;;6126834;23;20182;-81
2021/03/20 14:24:33;;;;;;;2.10;1.30;;;;;;;;;;6126996;23;20638;-81
2021/03/20 14:27:00;;;;;;;1.55;1.42;;;;;;;;;;6126129;23;20556;-81
2021/03/20 14:29:26;;;;;;;1.30;1.30;;;;;;;;;;6126992;23;20178;-80
2021/03/20 14:31:52;;;;;;;1.08;1.08;;;;;;;;;;6126746;23;20421;-80
2021/03/20 14:34:18;;;;;;;1.40;1.30;;;;;;;;;;6127104;23;20178;-81
2021/03/20 14:36:44;;;;;;;1.90;1.30;;;;;;;;;;6101307;23;20619;-80
2021/03/20 14:39:10;;;;;;;2.03;1.23;;;;;;;;;;6102078;23;20181;-80
2021/03/20 14:41:37;;;;;;;1.17;1.17;;;;;;;;;;6128712;23;20258;-80
2021/03/20 14:44:04;;;;;;;1.07;1.07;;;;;;;;;;6128201;23;20174;-80
2021/03/20 14:46:30;;;;;;;2.67;1.40;;;;;;;;;;6128862;23;20562;-80
2021/03/20 14:48:56;;;;;;;1.20;1.20;;;;;;;;;;6102976;23;20202;-80
2021/03/20 14:51:22;;;;;;;1.60;1.27;;;;;;;;;;6128630;23;20174;-82
2021/03/20 14:53:49;;;;;;;2.25;2.15;;;;;;;;;;6127537;23;21198;-80
2021/03/20 14:56:15;;;;;;;2.03;1.80;;;;;;;;;;6128223;23;20185;-80
2021/03/20 14:58:42;;;;;;;1.77;1.67;;;;;;;;;;6128535;23;20174;-79